This is the latest recevied weather packets stored in our database for station/object KR4ELZ. If no packets are shown the sender has not sent any weather packets the latest 10 day(s).
| Time | Temp. | Humidity | Pressure | Rain* | Wind** | Luminosity | Snow |
|---|---|---|---|---|---|---|---|
| 1777762046 | 20° C | 40% | 1015.8 hPa | 0 mm | - | 38 W/m² | - |
| 1777760835 | 18.33° C | 45% | 1015.7 hPa | 0 mm | - | 60 W/m² | - |
| 1777760532 | 18.33° C | 42% | 1015.8 hPa | 0 mm | - | 61 W/m² | - |
| 1777760228 | 18.33° C | 44% | 1015.9 hPa | 0 mm | - | 51 W/m² | - |
| 1777759925 | 18.89° C | 41% | 1015.9 hPa | 0 mm | - | 51 W/m² | - |
| 1777758711 | 20° C | 41% | 1015.7 hPa | 0 mm | - | 59 W/m² | - |
| 1777757803 | 21.11° C | 38% | 1015.7 hPa | 0 mm | - | 333 W/m² | - |
| 1777757500 | 21.11° C | 38% | 1015.3 hPa | 0 mm | - | 381 W/m² | - |
| 1777757199 | 20.56° C | 39% | 1015.5 hPa | 0 mm | - | 397 W/m² | - |
| 1777756897 | 20.56° C | 40% | 1015.4 hPa | 0 mm | - | 119 W/m² | - |
| 1777756592 | 19.44° C | 41% | 1015.5 hPa | 0 mm | - | 99 W/m² | - |
| 1777755684 | 21.67° C | 38% | 1015.7 hPa | 0 mm | - | 75 W/m² | - |
| 1777754774 | 19.44° C | 39% | 1015.7 hPa | 0 mm | - | 513 W/m² | - |
| 1777753866 | 19.44° C | 39% | 1015.9 hPa | 0 mm | - | 98 W/m² | - |
| 1777753561 | 19.44° C | 40% | 1016 hPa | 0 mm | - | 119 W/m² | - |
| 1777753260 | 20.56° C | 36% | 1015.8 hPa | 0 mm | - | 98 W/m² | - |
| 1777752955 | 21.11° C | 37% | 1015.9 hPa | 0 mm | - | 540 W/m² | - |
| 1777752652 | 21.67° C | 35% | 1015.9 hPa | 0 mm | - | 542 W/m² | - |
| 1777752348 | 20.56° C | 38% | 1016 hPa | 0 mm | - | 583 W/m² | - |
| 1777752046 | 21.11° C | 40% | 1016 hPa | 0 mm | - | 611 W/m² | - |
| 1777751743 | 21.11° C | 39% | 1016.1 hPa | 0 mm | - | 564 W/m² | - |
| 1777751439 | 21.67° C | 37% | 1016.4 hPa | 0 mm | - | 586 W/m² | - |
| 1777751136 | 20.56° C | 41% | 1016.3 hPa | 0 mm | - | 573 W/m² | - |
| 1777750530 | 20° C | 42% | 1016.6 hPa | 0 mm | - | 560 W/m² | - |
| 1777750226 | 20° C | 41% | 1016.7 hPa | 0 mm | - | 646 W/m² | - |
* Rain latest hour (hover to see other rain measurements)
** Current wind speed in m/s (hover to see current wind gust speed)